sensor_id;sensor_type;location;lat;lon;timestamp;temperature;humidity
38398;DHT22;24179;52.094;4.408;2024-01-16T00:01:42;1.90;99.90
38398;DHT22;24179;52.094;4.408;2024-01-16T00:04:43;1.90;99.90
38398;DHT22;24179;52.094;4.408;2024-01-16T00:07:44;1.90;99.90
38398;DHT22;24179;52.094;4.408;2024-01-16T00:10:44;1.90;99.90
38398;DHT22;24179;52.094;4.408;2024-01-16T00:13:45;1.90;99.90
38398;DHT22;24179;52.094;4.408;2024-01-16T00:16:46;1.90;99.90
38398;DHT22;24179;52.094;4.408;2024-01-16T00:19:48;1.90;99.90
38398;DHT22;24179;52.094;4.408;2024-01-16T00:22:48;1.90;99.90
38398;DHT22;24179;52.094;4.408;2024-01-16T00:25:49;1.90;99.90
38398;DHT22;24179;52.094;4.408;2024-01-16T00:28:49;1.90;99.90
38398;DHT22;24179;52.094;4.408;2024-01-16T00:31:50;1.90;99.90
38398;DHT22;24179;52.094;4.408;2024-01-16T00:34:51;1.80;99.90
38398;DHT22;24179;52.094;4.408;2024-01-16T00:37:52;1.90;99.90
38398;DHT22;24179;52.094;4.408;2024-01-16T00:40:52;1.90;99.90
38398;DHT22;24179;52.094;4.408;2024-01-16T00:43:53;1.90;99.90
38398;DHT22;24179;52.094;4.408;2024-01-16T00:46:54;1.90;99.90
38398;DHT22;24179;52.094;4.408;2024-01-16T00:49:54;1.90;99.90
38398;DHT22;24179;52.094;4.408;2024-01-16T00:52:55;1.90;99.90
38398;DHT22;24179;52.094;4.408;2024-01-16T00:55:56;1.90;99.90
38398;DHT22;24179;52.094;4.408;2024-01-16T00:58:56;1.90;99.90
38398;DHT22;24179;52.094;4.408;2024-01-16T01:01:57;1.80;99.90
38398;DHT22;24179;52.094;4.408;2024-01-16T01:04:57;1.90;99.90
38398;DHT22;24179;52.094;4.408;2024-01-16T01:07:58;1.90;99.90
38398;DHT22;24179;52.094;4.408;2024-01-16T01:10:59;1.90;99.90
38398;DHT22;24179;52.094;4.408;2024-01-16T01:13:59;1.90;99.90
38398;DHT22;24179;52.094;4.408;2024-01-16T01:17:00;1.90;99.90
38398;DHT22;24179;52.094;4.408;2024-01-16T01:20:01;1.90;99.90
38398;DHT22;24179;52.094;4.408;2024-01-16T01:23:01;1.80;99.90
38398;DHT22;24179;52.094;4.408;2024-01-16T01:26:02;1.80;99.90
38398;DHT22;24179;52.094;4.408;2024-01-16T01:29:03;1.80;99.90
38398;DHT22;24179;52.094;4.408;2024-01-16T01:32:04;1.80;99.90
38398;DHT22;24179;52.094;4.408;2024-01-16T01:35:06;1.80;99.90
38398;DHT22;24179;52.094;4.408;2024-01-16T01:38:06;1.80;99.90
38398;DHT22;24179;52.094;4.408;2024-01-16T01:41:08;1.90;99.90
38398;DHT22;24179;52.094;4.408;2024-01-16T01:44:12;1.90;99.90
38398;DHT22;24179;52.094;4.408;2024-01-16T01:47:16;1.80;99.90
38398;DHT22;24179;52.094;4.408;2024-01-16T01:50:17;1.80;99.90
38398;DHT22;24179;52.094;4.408;2024-01-16T01:53:17;1.80;99.90
38398;DHT22;24179;52.094;4.408;2024-01-16T01:56:18;1.80;99.90
38398;DHT22;24179;52.094;4.408;2024-01-16T01:59:20;1.80;99.90
38398;DHT22;24179;52.094;4.408;2024-01-16T02:02:22;1.80;99.90
38398;DHT22;24179;52.094;4.408;2024-01-16T02:05:23;1.80;99.90
38398;DHT22;24179;52.094;4.408;2024-01-16T02:08:24;1.80;99.90
38398;DHT22;24179;52.094;4.408;2024-01-16T02:11:25;1.80;99.90
38398;DHT22;24179;52.094;4.408;2024-01-16T02:14:25;1.70;99.90
38398;DHT22;24179;52.094;4.408;2024-01-16T02:17:26;1.80;99.90
38398;DHT22;24179;52.094;4.408;2024-01-16T02:20:26;1.70;99.90
38398;DHT22;24179;52.094;4.408;2024-01-16T02:23:27;1.80;99.90
38398;DHT22;24179;52.094;4.408;2024-01-16T02:26:28;1.80;99.90
38398;DHT22;24179;52.094;4.408;2024-01-16T02:29:30;1.80;99.90
38398;DHT22;24179;52.094;4.408;2024-01-16T02:32:31;1.80;99.90
38398;DHT22;24179;52.094;4.408;2024-01-16T02:35:32;1.70;99.90
38398;DHT22;24179;52.094;4.408;2024-01-16T02:38:32;1.80;99.90
38398;DHT22;24179;52.094;4.408;2024-01-16T02:41:33;1.80;99.90
38398;DHT22;24179;52.094;4.408;2024-01-16T02:44:34;1.80;99.90
38398;DHT22;24179;52.094;4.408;2024-01-16T02:47:34;1.80;99.90
38398;DHT22;24179;52.094;4.408;2024-01-16T02:50:35;1.80;99.90
38398;DHT22;24179;52.094;4.408;2024-01-16T02:53:35;1.80;99.90
38398;DHT22;24179;52.094;4.408;2024-01-16T02:56:36;1.80;99.90
38398;DHT22;24179;52.094;4.408;2024-01-16T02:59:36;1.80;99.90
38398;DHT22;24179;52.094;4.408;2024-01-16T03:02:37;1.80;99.90
38398;DHT22;24179;52.094;4.408;2024-01-16T03:05:38;1.80;99.90
38398;DHT22;24179;52.094;4.408;2024-01-16T03:08:38;1.70;99.90
38398;DHT22;24179;52.094;4.408;2024-01-16T03:11:39;1.70;99.90
38398;DHT22;24179;52.094;4.408;2024-01-16T03:14:39;1.70;99.90
38398;DHT22;24179;52.094;4.408;2024-01-16T03:17:40;1.70;99.90
38398;DHT22;24179;52.094;4.408;2024-01-16T03:20:40;1.70;99.90
38398;DHT22;24179;52.094;4.408;2024-01-16T03:23:41;1.70;99.90
38398;DHT22;24179;52.094;4.408;2024-01-16T03:26:42;1.70;99.90
38398;DHT22;24179;52.094;4.408;2024-01-16T03:29:43;1.70;99.90
38398;DHT22;24179;52.094;4.408;2024-01-16T03:32:43;1.70;99.90
38398;DHT22;24179;52.094;4.408;2024-01-16T03:35:44;1.70;99.90
38398;DHT22;24179;52.094;4.408;2024-01-16T03:38:44;1.70;99.90
38398;DHT22;24179;52.094;4.408;2024-01-16T03:41:45;1.70;99.90
38398;DHT22;24179;52.094;4.408;2024-01-16T03:44:45;1.80;99.90
38398;DHT22;24179;52.094;4.408;2024-01-16T03:47:46;1.70;99.90
38398;DHT22;24179;52.094;4.408;2024-01-16T03:50:47;1.70;99.90
38398;DHT22;24179;52.094;4.408;2024-01-16T03:53:47;1.70;99.90
38398;DHT22;24179;52.094;4.408;2024-01-16T03:56:48;1.70;99.90
38398;DHT22;24179;52.094;4.408;2024-01-16T03:59:49;1.70;99.90
38398;DHT22;24179;52.094;4.408;2024-01-16T04:02:49;1.70;99.90
38398;DHT22;24179;52.094;4.408;2024-01-16T04:05:50;1.70;99.90
38398;DHT22;24179;52.094;4.408;2024-01-16T04:08:50;1.70;99.90
38398;DHT22;24179;52.094;4.408;2024-01-16T04:11:51;1.70;99.90
38398;DHT22;24179;52.094;4.408;2024-01-16T04:14:52;1.70;99.90
38398;DHT22;24179;52.094;4.408;2024-01-16T04:17:52;1.70;99.90
38398;DHT22;24179;52.094;4.408;2024-01-16T04:20:53;1.70;99.90
38398;DHT22;24179;52.094;4.408;2024-01-16T04:23:53;1.60;99.90
38398;DHT22;24179;52.094;4.408;2024-01-16T04:26:54;1.70;99.90
38398;DHT22;24179;52.094;4.408;2024-01-16T04:29:54;1.70;99.90
38398;DHT22;24179;52.094;4.408;2024-01-16T04:32:55;1.70;99.90
38398;DHT22;24179;52.094;4.408;2024-01-16T04:35:56;1.70;99.90
38398;DHT22;24179;52.094;4.408;2024-01-16T04:38:56;1.70;99.90
38398;DHT22;24179;52.094;4.408;2024-01-16T04:41:57;1.70;99.90
38398;DHT22;24179;52.094;4.408;2024-01-16T04:44:57;1.70;99.90
38398;DHT22;24179;52.094;4.408;2024-01-16T04:47:58;1.70;99.90
38398;DHT22;24179;52.094;4.408;2024-01-16T04:50:59;1.70;99.90
38398;DHT22;24179;52.094;4.408;2024-01-16T04:54:00;1.70;99.90
38398;DHT22;24179;52.094;4.408;2024-01-16T04:57:00;1.70;99.90
38398;DHT22;24179;52.094;4.408;2024-01-16T05:00:01;1.70;99.90
38398;DHT22;24179;52.094;4.408;2024-01-16T05:03:06;1.70;99.90
38398;DHT22;24179;52.094;4.408;2024-01-16T05:06:13;1.70;99.90
38398;DHT22;24179;52.094;4.408;2024-01-16T05:09:15;1.70;99.90
38398;DHT22;24179;52.094;4.408;2024-01-16T05:12:15;1.70;99.90
38398;DHT22;24179;52.094;4.408;2024-01-16T05:15:16;1.60;99.90
38398;DHT22;24179;52.094;4.408;2024-01-16T05:18:16;1.60;99.90
38398;DHT22;24179;52.094;4.408;2024-01-16T05:21:17;1.70;99.90
38398;DHT22;24179;52.094;4.408;2024-01-16T05:24:18;1.70;99.90
38398;DHT22;24179;52.094;4.408;2024-01-16T05:27:18;1.60;99.90
38398;DHT22;24179;52.094;4.408;2024-01-16T05:30:19;1.70;99.90
38398;DHT22;24179;52.094;4.408;2024-01-16T05:33:19;1.60;99.90
38398;DHT22;24179;52.094;4.408;2024-01-16T05:36:20;1.70;99.90
38398;DHT22;24179;52.094;4.408;2024-01-16T05:39:21;1.60;99.90
38398;DHT22;24179;52.094;4.408;2024-01-16T05:42:21;1.60;99.90
38398;DHT22;24179;52.094;4.408;2024-01-16T05:45:22;1.60;99.90
38398;DHT22;24179;52.094;4.408;2024-01-16T05:48:22;1.60;99.90
38398;DHT22;24179;52.094;4.408;2024-01-16T05:51:24;1.60;99.90
38398;DHT22;24179;52.094;4.408;2024-01-16T05:54:25;1.60;99.90
38398;DHT22;24179;52.094;4.408;2024-01-16T05:57:26;1.60;99.90
38398;DHT22;24179;52.094;4.408;2024-01-16T06:00:26;1.60;99.90
38398;DHT22;24179;52.094;4.408;2024-01-16T06:03:27;1.60;99.90
38398;DHT22;24179;52.094;4.408;2024-01-16T06:06:27;1.60;99.90
38398;DHT22;24179;52.094;4.408;2024-01-16T06:09:28;1.60;99.90
38398;DHT22;24179;52.094;4.408;2024-01-16T06:12:28;1.60;99.90
38398;DHT22;24179;52.094;4.408;2024-01-16T06:15:29;1.60;99.90
38398;DHT22;24179;52.094;4.408;2024-01-16T06:18:30;1.70;99.90
38398;DHT22;24179;52.094;4.408;2024-01-16T06:21:31;1.60;99.90
38398;DHT22;24179;52.094;4.408;2024-01-16T06:24:32;1.60;99.90
38398;DHT22;24179;52.094;4.408;2024-01-16T06:27:37;1.60;99.90
38398;DHT22;24179;52.094;4.408;2024-01-16T06:30:37;1.60;99.90
38398;DHT22;24179;52.094;4.408;2024-01-16T06:33:38;1.60;99.90
38398;DHT22;24179;52.094;4.408;2024-01-16T06:36:38;1.60;99.90
38398;DHT22;24179;52.094;4.408;2024-01-16T06:39:39;1.60;99.90
38398;DHT22;24179;52.094;4.408;2024-01-16T06:42:40;1.60;99.90
38398;DHT22;24179;52.094;4.408;2024-01-16T06:45:41;1.60;99.90
38398;DHT22;24179;52.094;4.408;2024-01-16T06:48:42;1.60;99.90
38398;DHT22;24179;52.094;4.408;2024-01-16T06:51:43;1.60;99.90
38398;DHT22;24179;52.094;4.408;2024-01-16T06:54:43;1.60;99.90
38398;DHT22;24179;52.094;4.408;2024-01-16T06:57:44;1.60;99.90
38398;DHT22;24179;52.094;4.408;2024-01-16T07:00:47;1.60;99.90
38398;DHT22;24179;52.094;4.408;2024-01-16T07:03:48;1.60;99.90
38398;DHT22;24179;52.094;4.408;2024-01-16T07:06:48;1.60;99.90
38398;DHT22;24179;52.094;4.408;2024-01-16T07:09:49;1.60;99.90
38398;DHT22;24179;52.094;4.408;2024-01-16T07:12:50;1.60;99.90
38398;DHT22;24179;52.094;4.408;2024-01-16T07:15:51;1.60;99.90
38398;DHT22;24179;52.094;4.408;2024-01-16T07:18:52;1.60;99.90
38398;DHT22;24179;52.094;4.408;2024-01-16T07:21:54;1.60;99.90
38398;DHT22;24179;52.094;4.408;2024-01-16T07:24:55;1.50;99.90
38398;DHT22;24179;52.094;4.408;2024-01-16T07:27:55;1.50;99.90
38398;DHT22;24179;52.094;4.408;2024-01-16T07:30:56;1.50;99.90
38398;DHT22;24179;52.094;4.408;2024-01-16T07:33:57;1.50;99.90
38398;DHT22;24179;52.094;4.408;2024-01-16T07:36:57;1.50;99.90
38398;DHT22;24179;52.094;4.408;2024-01-16T07:39:58;1.50;99.90
38398;DHT22;24179;52.094;4.408;2024-01-16T07:42:58;1.50;99.90
38398;DHT22;24179;52.094;4.408;2024-01-16T07:45:59;1.50;99.90
38398;DHT22;24179;52.094;4.408;2024-01-16T07:49:00;1.50;99.90
38398;DHT22;24179;52.094;4.408;2024-01-16T07:52:01;1.50;99.90
38398;DHT22;24179;52.094;4.408;2024-01-16T07:55:01;1.50;99.90
38398;DHT22;24179;52.094;4.408;2024-01-16T07:58:03;1.50;99.90
38398;DHT22;24179;52.094;4.408;2024-01-16T08:01:05;1.50;99.90
38398;DHT22;24179;52.094;4.408;2024-01-16T08:04:05;1.50;99.90
38398;DHT22;24179;52.094;4.408;2024-01-16T08:07:06;1.50;99.90
38398;DHT22;24179;52.094;4.408;2024-01-16T08:10:08;1.50;99.90
38398;DHT22;24179;52.094;4.408;2024-01-16T08:13:09;1.50;99.90
38398;DHT22;24179;52.094;4.408;2024-01-16T08:16:09;1.50;99.90
38398;DHT22;24179;52.094;4.408;2024-01-16T08:19:10;1.50;99.90
38398;DHT22;24179;52.094;4.408;2024-01-16T08:22:11;1.50;99.90
38398;DHT22;24179;52.094;4.408;2024-01-16T08:25:11;1.50;99.90
38398;DHT22;24179;52.094;4.408;2024-01-16T08:28:12;1.50;99.90
38398;DHT22;24179;52.094;4.408;2024-01-16T08:31:16;1.50;99.90
38398;DHT22;24179;52.094;4.408;2024-01-16T08:34:18;1.50;99.90
38398;DHT22;24179;52.094;4.408;2024-01-16T08:37:19;1.50;99.90
38398;DHT22;24179;52.094;4.408;2024-01-16T08:40:19;1.50;99.90
38398;DHT22;24179;52.094;4.408;2024-01-16T08:43:20;1.50;99.90
38398;DHT22;24179;52.094;4.408;2024-01-16T08:46:21;1.50;99.90
38398;DHT22;24179;52.094;4.408;2024-01-16T08:49:21;1.50;99.90
38398;DHT22;24179;52.094;4.408;2024-01-16T08:52:22;1.50;99.90
38398;DHT22;24179;52.094;4.408;2024-01-16T08:55:23;1.50;99.90
38398;DHT22;24179;52.094;4.408;2024-01-16T08:58:23;1.50;99.90
38398;DHT22;24179;52.094;4.408;2024-01-16T09:01:24;1.50;99.90
38398;DHT22;24179;52.094;4.408;2024-01-16T09:04:24;1.50;99.90
38398;DHT22;24179;52.094;4.408;2024-01-16T09:07:26;1.50;99.90
38398;DHT22;24179;52.094;4.408;2024-01-16T09:10:26;1.50;99.90
38398;DHT22;24179;52.094;4.408;2024-01-16T09:13:27;1.50;99.90
38398;DHT22;24179;52.094;4.408;2024-01-16T09:16:27;1.50;99.90
38398;DHT22;24179;52.094;4.408;2024-01-16T09:19:28;1.50;99.90
38398;DHT22;24179;52.094;4.408;2024-01-16T09:22:29;1.50;99.90
38398;DHT22;24179;52.094;4.408;2024-01-16T09:25:30;1.50;99.90
38398;DHT22;24179;52.094;4.408;2024-01-16T09:28:30;1.50;99.90
38398;DHT22;24179;52.094;4.408;2024-01-16T09:31:31;1.50;99.90
38398;DHT22;24179;52.094;4.408;2024-01-16T09:34:32;1.50;99.90
38398;DHT22;24179;52.094;4.408;2024-01-16T09:37:32;1.50;99.90
38398;DHT22;24179;52.094;4.408;2024-01-16T09:40:33;1.50;99.90
38398;DHT22;24179;52.094;4.408;2024-01-16T09:43:34;1.50;99.90
38398;DHT22;24179;52.094;4.408;2024-01-16T09:46:37;1.60;99.90
38398;DHT22;24179;52.094;4.408;2024-01-16T09:49:38;1.60;99.90
38398;DHT22;24179;52.094;4.408;2024-01-16T09:52:39;1.60;99.90
38398;DHT22;24179;52.094;4.408;2024-01-16T09:55:40;1.60;99.90
38398;DHT22;24179;52.094;4.408;2024-01-16T09:58:41;1.60;99.90
38398;DHT22;24179;52.094;4.408;2024-01-16T10:01:42;1.60;99.90
38398;DHT22;24179;52.094;4.408;2024-01-16T10:04:44;1.60;99.90
38398;DHT22;24179;52.094;4.408;2024-01-16T10:07:45;1.60;99.90
38398;DHT22;24179;52.094;4.408;2024-01-16T10:10:46;1.70;99.90
38398;DHT22;24179;52.094;4.408;2024-01-16T10:13:46;1.70;99.90
38398;DHT22;24179;52.094;4.408;2024-01-16T10:17:01;1.70;99.90
38398;DHT22;24179;52.094;4.408;2024-01-16T10:20:14;1.70;99.90
38398;DHT22;24179;52.094;4.408;2024-01-16T10:23:23;1.70;99.90
38398;DHT22;24179;52.094;4.408;2024-01-16T10:26:23;1.70;99.90
38398;DHT22;24179;52.094;4.408;2024-01-16T10:29:24;1.80;99.90
38398;DHT22;24179;52.094;4.408;2024-01-16T10:32:32;1.80;99.90
38398;DHT22;24179;52.094;4.408;2024-01-16T10:35:33;1.90;99.90
38398;DHT22;24179;52.094;4.408;2024-01-16T10:38:35;1.90;99.90
38398;DHT22;24179;52.094;4.408;2024-01-16T10:41:38;1.90;99.90
38398;DHT22;24179;52.094;4.408;2024-01-16T10:44:52;1.90;99.90
38398;DHT22;24179;52.094;4.408;2024-01-16T10:48:04;2.00;99.90
38398;DHT22;24179;52.094;4.408;2024-01-16T10:51:10;2.00;99.90
38398;DHT22;24179;52.094;4.408;2024-01-16T10:54:13;2.00;99.90
38398;DHT22;24179;52.094;4.408;2024-01-16T10:57:17;2.00;99.90
38398;DHT22;24179;52.094;4.408;2024-01-16T11:00:22;2.00;99.90
38398;DHT22;24179;52.094;4.408;2024-01-16T11:03:35;2.10;99.90
38398;DHT22;24179;52.094;4.408;2024-01-16T11:06:39;2.10;99.90
38398;DHT22;24179;52.094;4.408;2024-01-16T11:09:40;2.10;99.90
38398;DHT22;24179;52.094;4.408;2024-01-16T11:12:42;2.20;99.90
38398;DHT22;24179;52.094;4.408;2024-01-16T11:15:43;2.20;99.90
38398;DHT22;24179;52.094;4.408;2024-01-16T11:18:46;2.20;99.90
38398;DHT22;24179;52.094;4.408;2024-01-16T11:21:47;2.20;99.90
38398;DHT22;24179;52.094;4.408;2024-01-16T11:25:34;2.30;99.90
38398;DHT22;24179;52.094;4.408;2024-01-16T11:28:13;2.30;99.90
38398;DHT22;24179;52.094;4.408;2024-01-16T11:31:40;2.30;99.90
38398;DHT22;24179;52.094;4.408;2024-01-16T11:37:45;2.40;99.90
38398;DHT22;24179;52.094;4.408;2024-01-16T11:40:46;2.30;99.90
38398;DHT22;24179;52.094;4.408;2024-01-16T11:43:48;2.30;99.90
38398;DHT22;24179;52.094;4.408;2024-01-16T11:47:00;2.40;99.90
38398;DHT22;24179;52.094;4.408;2024-01-16T11:50:27;2.40;99.90
38398;DHT22;24179;52.094;4.408;2024-01-16T11:53:38;2.40;99.90
38398;DHT22;24179;52.094;4.408;2024-01-16T11:57:11;2.40;99.90
38398;DHT22;24179;52.094;4.408;2024-01-16T12:00:20;2.40;99.90
38398;DHT22;24179;52.094;4.408;2024-01-16T12:03:22;2.40;99.90
38398;DHT22;24179;52.094;4.408;2024-01-16T12:06:22;2.40;99.90
38398;DHT22;24179;52.094;4.408;2024-01-16T12:09:26;2.40;99.90
38398;DHT22;24179;52.094;4.408;2024-01-16T12:12:27;2.40;99.90
38398;DHT22;24179;52.094;4.408;2024-01-16T12:15:27;2.40;99.90
38398;DHT22;24179;52.094;4.408;2024-01-16T12:18:28;2.40;99.90
38398;DHT22;24179;52.094;4.408;2024-01-16T12:21:29;2.40;99.90
38398;DHT22;24179;52.094;4.408;2024-01-16T12:24:29;2.40;99.90
38398;DHT22;24179;52.094;4.408;2024-01-16T12:27:30;2.40;99.90
38398;DHT22;24179;52.094;4.408;2024-01-16T12:33:32;2.50;99.90
38398;DHT22;24179;52.094;4.408;2024-01-16T12:36:33;2.50;99.90
38398;DHT22;24179;52.094;4.408;2024-01-16T12:39:34;2.50;99.90
38398;DHT22;24179;52.094;4.408;2024-01-16T12:42:35;2.50;99.90
38398;DHT22;24179;52.094;4.408;2024-01-16T12:45:36;2.50;99.90
38398;DHT22;24179;52.094;4.408;2024-01-16T12:48:37;2.50;99.90
38398;DHT22;24179;52.094;4.408;2024-01-16T12:51:38;2.50;99.90
38398;DHT22;24179;52.094;4.408;2024-01-16T12:54:39;2.50;99.90
38398;DHT22;24179;52.094;4.408;2024-01-16T12:57:39;2.50;99.90
38398;DHT22;24179;52.094;4.408;2024-01-16T13:00:40;2.60;99.90
38398;DHT22;24179;52.094;4.408;2024-01-16T13:03:41;2.60;99.90
38398;DHT22;24179;52.094;4.408;2024-01-16T13:06:41;2.60;99.90
38398;DHT22;24179;52.094;4.408;2024-01-16T13:09:44;2.60;99.90
38398;DHT22;24179;52.094;4.408;2024-01-16T13:12:44;2.60;99.90
38398;DHT22;24179;52.094;4.408;2024-01-16T13:15:47;2.70;99.90
38398;DHT22;24179;52.094;4.408;2024-01-16T13:19:00;2.70;99.90
38398;DHT22;24179;52.094;4.408;2024-01-16T13:22:01;2.70;99.90
38398;DHT22;24179;52.094;4.408;2024-01-16T13:25:02;2.60;99.90
38398;DHT22;24179;52.094;4.408;2024-01-16T13:28:03;2.60;99.90
38398;DHT22;24179;52.094;4.408;2024-01-16T13:31:07;2.60;99.90
38398;DHT22;24179;52.094;4.408;2024-01-16T13:34:08;2.60;99.90
38398;DHT22;24179;52.094;4.408;2024-01-16T13:37:09;2.60;99.90
38398;DHT22;24179;52.094;4.408;2024-01-16T13:40:10;2.60;99.90
38398;DHT22;24179;52.094;4.408;2024-01-16T13:43:16;2.70;99.90
38398;DHT22;24179;52.094;4.408;2024-01-16T13:46:17;2.70;99.90
38398;DHT22;24179;52.094;4.408;2024-01-16T13:49:18;2.80;99.90
38398;DHT22;24179;52.094;4.408;2024-01-16T13:52:18;2.70;99.90
38398;DHT22;24179;52.094;4.408;2024-01-16T13:55:19;2.70;99.90
38398;DHT22;24179;52.094;4.408;2024-01-16T13:58:20;2.70;99.90
38398;DHT22;24179;52.094;4.408;2024-01-16T14:01:20;2.70;99.90
38398;DHT22;24179;52.094;4.408;2024-01-16T14:04:22;2.70;99.90
38398;DHT22;24179;52.094;4.408;2024-01-16T14:07:23;2.70;99.90
38398;DHT22;24179;52.094;4.408;2024-01-16T14:10:23;2.70;99.90
38398;DHT22;24179;52.094;4.408;2024-01-16T14:13:25;2.70;99.90
38398;DHT22;24179;52.094;4.408;2024-01-16T14:16:28;2.70;99.90
38398;DHT22;24179;52.094;4.408;2024-01-16T14:19:29;2.70;99.90
38398;DHT22;24179;52.094;4.408;2024-01-16T14:22:30;2.70;99.90
38398;DHT22;24179;52.094;4.408;2024-01-16T14:25:31;2.70;99.90
38398;DHT22;24179;52.094;4.408;2024-01-16T14:28:32;2.80;99.90
38398;DHT22;24179;52.094;4.408;2024-01-16T14:31:34;2.80;99.90
38398;DHT22;24179;52.094;4.408;2024-01-16T14:34:34;2.80;99.90
38398;DHT22;24179;52.094;4.408;2024-01-16T14:37:38;2.70;99.90
38398;DHT22;24179;52.094;4.408;2024-01-16T14:40:38;2.80;99.90
38398;DHT22;24179;52.094;4.408;2024-01-16T14:43:39;2.80;99.90
38398;DHT22;24179;52.094;4.408;2024-01-16T14:46:40;2.80;99.90
38398;DHT22;24179;52.094;4.408;2024-01-16T14:49:43;2.80;99.90
38398;DHT22;24179;52.094;4.408;2024-01-16T14:52:44;2.80;99.90
38398;DHT22;24179;52.094;4.408;2024-01-16T14:55:45;2.80;99.90
38398;DHT22;24179;52.094;4.408;2024-01-16T14:58:46;2.80;99.90
38398;DHT22;24179;52.094;4.408;2024-01-16T15:01:47;2.80;99.90
38398;DHT22;24179;52.094;4.408;2024-01-16T15:04:47;2.80;99.90
38398;DHT22;24179;52.094;4.408;2024-01-16T15:07:49;2.80;99.90
38398;DHT22;24179;52.094;4.408;2024-01-16T15:10:52;2.70;99.90
38398;DHT22;24179;52.094;4.408;2024-01-16T15:13:53;2.80;99.90
38398;DHT22;24179;52.094;4.408;2024-01-16T15:16:53;2.80;99.90
38398;DHT22;24179;52.094;4.408;2024-01-16T15:19:54;2.80;99.90
38398;DHT22;24179;52.094;4.408;2024-01-16T15:22:54;2.80;99.90
38398;DHT22;24179;52.094;4.408;2024-01-16T15:25:55;2.80;99.90
38398;DHT22;24179;52.094;4.408;2024-01-16T15:28:56;2.80;99.90
38398;DHT22;24179;52.094;4.408;2024-01-16T15:31:57;2.80;99.90
38398;DHT22;24179;52.094;4.408;2024-01-16T15:34:58;2.80;99.90
38398;DHT22;24179;52.094;4.408;2024-01-16T15:38:00;2.80;99.90
38398;DHT22;24179;52.094;4.408;2024-01-16T15:41:03;2.80;99.90
38398;DHT22;24179;52.094;4.408;2024-01-16T15:44:03;2.80;99.90
38398;DHT22;24179;52.094;4.408;2024-01-16T15:47:06;2.80;99.90
38398;DHT22;24179;52.094;4.408;2024-01-16T15:50:08;2.80;99.90
38398;DHT22;24179;52.094;4.408;2024-01-16T15:53:09;2.80;99.90
38398;DHT22;24179;52.094;4.408;2024-01-16T15:56:10;2.80;99.90
38398;DHT22;24179;52.094;4.408;2024-01-16T15:59:11;2.80;99.90
38398;DHT22;24179;52.094;4.408;2024-01-16T16:02:12;2.80;99.90
38398;DHT22;24179;52.094;4.408;2024-01-16T16:05:12;2.80;99.90
38398;DHT22;24179;52.094;4.408;2024-01-16T16:08:13;2.80;99.90
38398;DHT22;24179;52.094;4.408;2024-01-16T16:11:15;2.80;99.90
38398;DHT22;24179;52.094;4.408;2024-01-16T16:14:16;2.80;99.90
38398;DHT22;24179;52.094;4.408;2024-01-16T16:17:17;2.80;99.90
38398;DHT22;24179;52.094;4.408;2024-01-16T16:20:17;2.80;99.90
38398;DHT22;24179;52.094;4.408;2024-01-16T16:23:24;2.80;99.90
38398;DHT22;24179;52.094;4.408;2024-01-16T16:26:32;2.80;99.90
38398;DHT22;24179;52.094;4.408;2024-01-16T16:29:33;2.70;99.90
38398;DHT22;24179;52.094;4.408;2024-01-16T16:32:34;2.70;99.90
38398;DHT22;24179;52.094;4.408;2024-01-16T16:35:34;2.70;99.90
38398;DHT22;24179;52.094;4.408;2024-01-16T16:38:35;2.70;99.90
38398;DHT22;24179;52.094;4.408;2024-01-16T16:41:36;2.70;99.90
38398;DHT22;24179;52.094;4.408;2024-01-16T16:44:40;2.70;99.90
38398;DHT22;24179;52.094;4.408;2024-01-16T16:47:40;2.80;99.90
38398;DHT22;24179;52.094;4.408;2024-01-16T16:50:41;2.70;99.90
38398;DHT22;24179;52.094;4.408;2024-01-16T16:53:44;2.70;99.90
38398;DHT22;24179;52.094;4.408;2024-01-16T16:56:45;2.70;99.90
38398;DHT22;24179;52.094;4.408;2024-01-16T16:59:46;2.70;99.90
38398;DHT22;24179;52.094;4.408;2024-01-16T17:02:47;2.70;99.90
38398;DHT22;24179;52.094;4.408;2024-01-16T17:05:47;2.70;99.90
38398;DHT22;24179;52.094;4.408;2024-01-16T17:08:48;2.70;99.90
38398;DHT22;24179;52.094;4.408;2024-01-16T17:11:49;2.70;99.90
38398;DHT22;24179;52.094;4.408;2024-01-16T17:14:49;2.70;99.90
38398;DHT22;24179;52.094;4.408;2024-01-16T17:17:54;2.70;99.90
38398;DHT22;24179;52.094;4.408;2024-01-16T17:20:55;2.70;99.90
38398;DHT22;24179;52.094;4.408;2024-01-16T17:23:56;2.70;99.90
38398;DHT22;24179;52.094;4.408;2024-01-16T17:26:57;2.70;99.90
38398;DHT22;24179;52.094;4.408;2024-01-16T17:29:58;2.70;99.90
38398;DHT22;24179;52.094;4.408;2024-01-16T17:32:58;2.60;99.90
38398;DHT22;24179;52.094;4.408;2024-01-16T17:35:59;2.70;99.90
38398;DHT22;24179;52.094;4.408;2024-01-16T17:39:06;2.60;99.90
38398;DHT22;24179;52.094;4.408;2024-01-16T17:42:09;2.60;99.90
38398;DHT22;24179;52.094;4.408;2024-01-16T17:45:09;2.60;99.90
38398;DHT22;24179;52.094;4.408;2024-01-16T17:48:12;2.70;99.90
38398;DHT22;24179;52.094;4.408;2024-01-16T17:51:12;2.70;99.90
38398;DHT22;24179;52.094;4.408;2024-01-16T17:54:13;2.60;99.90
38398;DHT22;24179;52.094;4.408;2024-01-16T17:57:14;2.60;99.90
38398;DHT22;24179;52.094;4.408;2024-01-16T18:00:17;2.70;99.90
38398;DHT22;24179;52.094;4.408;2024-01-16T18:03:17;2.60;99.90
38398;DHT22;24179;52.094;4.408;2024-01-16T18:06:21;2.60;99.90
38398;DHT22;24179;52.094;4.408;2024-01-16T18:09:21;2.60;99.90
38398;DHT22;24179;52.094;4.408;2024-01-16T18:12:29;2.60;99.90
38398;DHT22;24179;52.094;4.408;2024-01-16T18:15:31;2.60;99.90
38398;DHT22;24179;52.094;4.408;2024-01-16T18:18:32;2.60;99.90
38398;DHT22;24179;52.094;4.408;2024-01-16T18:21:33;2.60;99.90
38398;DHT22;24179;52.094;4.408;2024-01-16T18:24:35;2.60;99.90
38398;DHT22;24179;52.094;4.408;2024-01-16T18:27:37;2.60;99.90
38398;DHT22;24179;52.094;4.408;2024-01-16T18:30:38;2.50;99.90
38398;DHT22;24179;52.094;4.408;2024-01-16T18:33:39;2.50;99.90
38398;DHT22;24179;52.094;4.408;2024-01-16T18:36:46;2.50;99.90
38398;DHT22;24179;52.094;4.408;2024-01-16T18:39:49;2.50;99.90
38398;DHT22;24179;52.094;4.408;2024-01-16T18:42:50;2.50;99.90
38398;DHT22;24179;52.094;4.408;2024-01-16T18:45:51;2.50;99.90
38398;DHT22;24179;52.094;4.408;2024-01-16T18:48:52;2.50;99.90
38398;DHT22;24179;52.094;4.408;2024-01-16T18:51:53;2.50;99.90
38398;DHT22;24179;52.094;4.408;2024-01-16T18:54:54;2.50;99.90
38398;DHT22;24179;52.094;4.408;2024-01-16T18:57:54;2.40;99.90
38398;DHT22;24179;52.094;4.408;2024-01-16T19:01:00;2.40;99.90
38398;DHT22;24179;52.094;4.408;2024-01-16T19:04:01;2.40;99.90
38398;DHT22;24179;52.094;4.408;2024-01-16T19:07:02;2.40;99.90
38398;DHT22;24179;52.094;4.408;2024-01-16T19:10:13;2.40;99.90
38398;DHT22;24179;52.094;4.408;2024-01-16T19:13:13;2.40;99.90
38398;DHT22;24179;52.094;4.408;2024-01-16T19:16:16;2.40;99.90
38398;DHT22;24179;52.094;4.408;2024-01-16T19:19:18;2.30;99.90
38398;DHT22;24179;52.094;4.408;2024-01-16T19:22:20;2.40;99.90
38398;DHT22;24179;52.094;4.408;2024-01-16T19:25:21;2.40;99.90
38398;DHT22;24179;52.094;4.408;2024-01-16T19:28:25;2.40;99.90
38398;DHT22;24179;52.094;4.408;2024-01-16T19:31:26;2.40;99.90